Airfield :
LOGIN :

Register | Disclaimer

   EN    FR    IT 

 










Legend :    VFR   Marginal VFR   IFR   Intensive IFR   Very Intensive IFR
Visi :
Ceiling :
>= 8 km
>= 3000ft
5 to 8 km
1000 to 3000 ft
1500m to 5 km
500 to 1000 ft
800 to 1500m
200 to 500 ft
< 800m
< 200 ft
Symbols :   Thunderstorms  Fog  Heavy snow  Heavy precipitations  Wind > 20 kt
SIGMETs :     Misc.  Thunderstorms  Icing  Turbulence  Mountain Waves  Volcanic Ashes






- Airport Elevation : 348 ft
- IATA code : STN


EGSS - London Stansted

CURRENT METAR :
  • 051650Z AUTO 22017KT 9999 NCD 07/05 Q1014

EXPIRED METARs :
  • 051620Z AUTO 22017KT 9999 NCD 07/05 Q1015
  • 051550Z AUTO 22014KT 9999 NCD 07/05 Q1015
  • 051520Z AUTO 22014KT 9999 NCD 06/05 Q1015
  • 051450Z AUTO 21014KT 9999 NCD 06/05 Q1016
  • 051420Z AUTO 22013KT 9999 NCD 06/05 Q1017

TAF TAF EGSS
Valid from the 05 at 12:00 until the 06 at 18:00 UTC


051058Z 0512/0618 22010KT 6000 FEW004
PROB40 0512/0513 4000 BR BKN004
BECMG 0513/0515 9999
TEMPO 0516/0612 23018G28KT
BECMG 0519/0522 BKN010
PROB30
TEMPO 0519/0522 8000 -RA
BECMG 0522/0601 OVC005
TEMPO 0522/0612 6000 RA BKN004
PROB30
TEMPO 0522/0609 3000 RADZ
PROB40
TEMPO 0609/0612 2000 DZ BKN001
BECMG 0612/0614 SCT008
TEMPO 0614/0618 6000 SHRA
PROB30
TEMPO 0615/0618 3000 +SHRA BKN014
ATIS : +44 1279 669 325



MET'MAP, your aeronautical weather chart ! - Copyright ORBIFLY December 2007 - Disclaimer

ORBIFLY MET'MAP TEAM :

Programming & Development : Alexandra Zaïnal
Concept & original design : Baudouin d'Aumeries
Assistance for programming : Marc-Olivier Méhu
Technical & hardware support : Manuel Goepfert

Contact : metmap@orbifly.com




SOURCES & CREDITS :

   NOAA